Terminal Aerodrome Forecast
Issued by NWS

Home | Current Version | Previous Version | Text Only | Print | Product List | Glossary On
Versions: 1 2 3 4 5 6 7 8 9 10 11 12
000
FTUS45 KVEF 021100
TAFBIH
TAF
KBIH 021122Z 0212/0312 32007KT P6SM SKC
     FM022000 16014G22KT P6SM SKC
     FM030200 15011KT P6SM SKC
     FM030800 32006KT P6SM SKC=

USA.gov is the U.S. government's official web portal to all federal, state and local government web resources and services.